Weather History for KEGV - April, 2013

Change the Weather History Date:

Tuesday, April 2, 2013

  Actual Average Record
Temperature  
Mean Temperature 22 °F -  
Max Temperature 32 °F 41 °F 64 °F (1999)
Min Temperature 12 °F 22 °F 6 °F (2008)
Degree Days  
Heating Degree Days 43    
Moisture  
Dew Point 7 °F    
Average Humidity 52    
Maximum Humidity 79    
Minimum Humidity 30    
Precipitation  
Precipitation 0.00 in - - ()
Sea Level Pressure  
Sea Level Pressure 30.14 in    
Wind  
Wind Speed 8 mph (NW)    
Max Wind Speed 18 mph    
Max Gust Speed 24 mph    
Visibility 10 miles    
Events      
Averages and records for this station are not official NWS values.
T = Trace of Precipitation, MM = Missing Value Source: NWS Daily Summary

Daily Weather History Graph

Daily Weather History Graph

Search for Another Location

Airport or City:

Trip Planner

Search our weather history database for the weather conditions in past years. The results will help you decide how hot, cold, wet, or windy it might be!

Date:

Astronomy

Apr. 02, 2013 Rise Set
Actual Time 6:34 AM CDT 7:27 PM CDT
Civil Twilight 6:04 AM CDT 7:57 PM CDT
Nautical Twilight 5:28 AM CDT 8:33 PM CDT
Astronomical Twilight 4:50 AM CDT 9:11 PM CDT
Moon 1:45 AM CDT (4/2) 11:12 AM CDT (4/2)
Length of Visible Light 13h 53m
Length of Day
12h 52m
Waning Gibbous, 55% of the Moon is Illuminated
Apr 2
Waning Gibbous
Apr 2
Last Quarter
Apr 10
New
Apr 18
First Quarter
Apr 25
Full

Hourly Weather History & Observations

Time (CDT) Temp. Windchill Dew Point Humidity Pressure Visibility Wind Dir Wind Speed Gust Speed Precip Events Conditions
12:15 AM 14.0 °F 5.1 °F 3.2 °F 62% 30.05 in 10.0 mi West 5.8 mph - N/A   Clear
12:35 AM 12.2 °F 1.7 °F 3.2 °F 67% 30.05 in 10.0 mi West 6.9 mph - N/A   Clear
12:55 AM 19.4 °F 11.5 °F 5.0 °F 54% 30.05 in 10.0 mi West 5.8 mph - N/A   Clear
1:15 AM 19.4 °F 12.8 °F 5.0 °F 54% 30.06 in 10.0 mi West 4.6 mph - N/A   Clear
1:35 AM 17.6 °F 8.2 °F 5.0 °F 58% 30.06 in 10.0 mi West 6.9 mph - N/A   Clear
1:55 AM 17.6 °F 9.3 °F 5.0 °F 58% 30.06 in 10.0 mi West 5.8 mph - N/A   Clear
2:15 AM 17.6 °F 10.7 °F 5.0 °F 58% 30.06 in 10.0 mi West 4.6 mph - N/A   Clear
2:35 AM 17.6 °F 9.3 °F 5.0 °F 58% 30.06 in 10.0 mi West 5.8 mph - N/A   Clear
2:55 AM 17.6 °F 9.3 °F 5.0 °F 58% 30.06 in 10.0 mi West 5.8 mph - N/A   Clear
3:15 AM 17.6 °F 9.3 °F 6.8 °F 63% 30.06 in 10.0 mi West 5.8 mph - N/A   Clear
3:35 AM 17.6 °F 8.2 °F 6.8 °F 63% 30.06 in 10.0 mi West 6.9 mph - N/A   Clear
3:55 AM 15.8 °F 7.2 °F 6.8 °F 68% 30.06 in 10.0 mi West 5.8 mph - N/A   Clear
4:15 AM 17.6 °F 8.2 °F 8.6 °F 68% 30.06 in 10.0 mi WNW 6.9 mph - N/A   Clear
4:35 AM 17.6 °F 9.3 °F 8.6 °F 68% 30.06 in 10.0 mi West 5.8 mph - N/A   Clear
4:55 AM 17.6 °F 8.2 °F 8.6 °F 68% 30.07 in 10.0 mi West 6.9 mph - N/A   Clear
5:15 AM 15.8 °F 7.2 °F 8.6 °F 73% 30.07 in 10.0 mi WNW 5.8 mph - N/A   Clear
5:35 AM 15.8 °F 5.1 °F 8.6 °F 73% 30.08 in 10.0 mi WNW 8.1 mph - N/A   Clear
5:55 AM 15.8 °F 7.2 °F 10.4 °F 79% 30.09 in 10.0 mi West 5.8 mph - N/A   Clear
6:15 AM 15.8 °F 6.1 °F 10.4 °F 79% 30.09 in 10.0 mi WNW 6.9 mph - N/A   Clear
6:55 AM 15.8 °F 6.1 °F 10.4 °F 79% 30.10 in 10.0 mi WNW 6.9 mph - N/A   Clear
7:15 AM 15.8 °F 7.2 °F 10.4 °F 79% 30.11 in 10.0 mi West 5.8 mph - N/A   Clear
7:35 AM 17.6 °F 9.3 °F 10.4 °F 73% 30.12 in 10.0 mi WNW 5.8 mph - N/A   Clear
7:55 AM 19.4 °F 10.4 °F 10.4 °F 68% 30.12 in 10.0 mi WNW 6.9 mph - N/A   Clear
8:15 AM 19.4 °F 9.5 °F 12.2 °F 74% 30.12 in 10.0 mi NW 8.1 mph - N/A   Clear
8:35 AM 21.2 °F 11.7 °F 12.2 °F 68% 30.13 in 10.0 mi NW 8.1 mph - N/A   Clear
8:55 AM 23.0 °F 13.1 °F 14.0 °F 68% 30.13 in 10.0 mi NW 9.2 mph - N/A   Clear
9:15 AM 23.0 °F 12.4 °F 14.0 °F 68% 30.13 in 10.0 mi NW 10.4 mph - N/A   Clear
9:35 AM 24.8 °F 15.3 °F 12.2 °F 59% 30.13 in 10.0 mi NW 9.2 mph 16.1 mph N/A   Clear
9:55 AM 26.6 °F 18.2 °F 12.2 °F 55% 30.13 in 10.0 mi NW 8.1 mph - N/A   Clear
10:15 AM 26.6 °F 16.8 °F 10.4 °F 51% 30.13 in 10.0 mi NW 10.4 mph 16.1 mph N/A   Scattered Clouds
10:35 AM 26.6 °F 16.2 °F 10.4 °F 51% 30.13 in 10.0 mi NW 11.5 mph 17.3 mph N/A   Mostly Cloudy
10:55 AM 28.4 °F 16.2 °F 8.6 °F 43% 30.14 in 10.0 mi NW 17.3 mph 20.7 mph N/A   Mostly Cloudy
11:15 AM 28.4 °F 16.6 °F 10.4 °F 47% 30.14 in 10.0 mi NNW 16.1 mph 20.7 mph N/A   Overcast
11:55 AM 30.2 °F 19.3 °F 8.6 °F 40% 30.14 in 10.0 mi NW 15.0 mph 24.2 mph N/A   Overcast
12:15 PM 30.2 °F 21.9 °F 8.6 °F 40% 30.14 in 10.0 mi NNW 9.2 mph 19.6 mph N/A   Mostly Cloudy
12:35 PM 30.2 °F 19.3 °F 10.4 °F 44% 30.14 in 10.0 mi NNW 15.0 mph 21.9 mph N/A   Mostly Cloudy
12:55 PM 30.2 °F 19.3 °F 10.4 °F 44% 30.14 in 10.0 mi NNW 15.0 mph 19.6 mph N/A   Mostly Cloudy
1:15 PM 32.0 °F 21.2 °F 10.4 °F 41% 30.14 in 10.0 mi WNW 16.1 mph 20.7 mph N/A   Mostly Cloudy
1:35 PM 30.2 °F 18.9 °F 10.4 °F 44% 30.14 in 10.0 mi NNW 16.1 mph 20.7 mph N/A   Overcast
1:55 PM 30.2 °F 19.3 °F 8.6 °F 40% 30.14 in 10.0 mi NNW 15.0 mph 20.7 mph N/A   Mostly Cloudy
2:15 PM 30.2 °F 19.3 °F 6.8 °F 37% 30.14 in 10.0 mi NNW 15.0 mph - N/A   Mostly Cloudy
2:35 PM 30.2 °F 20.8 °F 8.6 °F 40% 30.15 in 10.0 mi NNW 11.5 mph - N/A   Scattered Clouds
2:55 PM 32.0 °F 20.5 °F 8.6 °F 38% 30.15 in 10.0 mi NNW 18.4 mph 23.0 mph N/A   Scattered Clouds
3:15 PM 32.0 °F 22.1 °F 5.0 °F 32% 30.15 in 10.0 mi NW 13.8 mph 19.6 mph N/A   Scattered Clouds
3:35 PM 32.0 °F 24.2 °F 6.8 °F 35% 30.14 in 10.0 mi NW 9.2 mph - N/A   Scattered Clouds
3:55 PM 32.0 °F 23.6 °F 5.0 °F 32% 30.15 in 10.0 mi NW 10.4 mph 20.7 mph N/A   Scattered Clouds
4:15 PM 32.0 °F 21.6 °F 3.2 °F 30% 30.15 in 10.0 mi NW 15.0 mph 24.2 mph N/A   Scattered Clouds
4:35 PM 30.2 °F 20.2 °F 3.2 °F 32% 30.16 in 10.0 mi NW 12.7 mph - N/A   Clear
4:55 PM 30.2 °F 18.9 °F 3.2 °F 32% 30.17 in 10.0 mi NW 16.1 mph 20.7 mph N/A   Clear
5:15 PM 30.2 °F 18.9 °F 3.2 °F 32% 30.17 in 10.0 mi NW 16.1 mph 19.6 mph N/A   Clear
5:35 PM 30.2 °F 18.9 °F 3.2 °F 32% 30.18 in 10.0 mi NNW 16.1 mph - N/A   Clear
5:55 PM 30.2 °F 18.5 °F 3.2 °F 32% 30.18 in 10.0 mi NNW 17.3 mph - N/A   Clear
6:15 PM 30.2 °F 21.9 °F 3.2 °F 32% 30.18 in 10.0 mi NNW 9.2 mph 12.7 mph N/A   Clear
6:35 PM 28.4 °F 19.1 °F 3.2 °F 34% 30.20 in 10.0 mi NNW 10.4 mph - N/A   Clear
7:15 PM 26.6 °F 17.5 °F 3.2 °F 37% 30.20 in 10.0 mi NW 9.2 mph - N/A   Clear
7:35 PM 26.6 °F 18.2 °F 3.2 °F 37% 30.20 in 10.0 mi NNW 8.1 mph - N/A   Clear
7:55 PM 26.6 °F 20.0 °F 3.2 °F 37% 30.21 in 10.0 mi NNW 5.8 mph - N/A   Clear
8:15 PM 26.6 °F 20.0 °F 3.2 °F 37% 30.21 in 10.0 mi NNW 5.8 mph - N/A   Clear
8:35 PM 26.6 °F 22.6 °F 3.2 °F 37% 30.22 in 10.0 mi NW 3.5 mph - N/A   Clear
8:55 PM 26.6 °F 22.6 °F 3.2 °F 37% 30.22 in 10.0 mi NW 3.5 mph - N/A   Clear
9:15 PM 26.6 °F 22.6 °F 3.2 °F 37% 30.22 in 10.0 mi NNW 3.5 mph - N/A   Clear
9:35 PM 23.0 °F - 5.0 °F 46% 30.23 in 10.0 mi Calm Calm - N/A   Clear
9:55 PM 21.2 °F 16.4 °F 5.0 °F 50% 30.23 in 10.0 mi WNW 3.5 mph - N/A   Clear
10:15 PM 21.2 °F - 5.0 °F 50% 30.23 in 10.0 mi Calm Calm - N/A   Clear
10:35 PM 17.6 °F 12.3 °F 6.8 °F 63% 30.23 in 10.0 mi WNW 3.5 mph - N/A   Clear
10:55 PM 17.6 °F - 8.6 °F 68% 30.24 in 10.0 mi Calm Calm - N/A   Clear
11:15 PM 15.8 °F - 8.6 °F 73% 30.24 in 10.0 mi Calm Calm - N/A   Clear
11:35 PM 15.8 °F - 6.8 °F 68% 30.24 in 10.0 mi Calm Calm - N/A   Clear
11:55 PM 14.0 °F - 5.0 °F 67% 30.24 in 10.0 mi Calm Calm - N/A   Clear